createdAt,value
2023-02-01T00:02:05.472Z,12.07
2023-02-01T00:04:30.973Z,13.45
2023-02-01T00:07:07.034Z,12.70
2023-02-01T00:09:40.078Z,13.40
2023-02-01T00:12:19.340Z,12.77
2023-02-01T00:14:49.755Z,12.75
2023-02-01T00:17:17.874Z,13.82
2023-02-01T00:19:50.777Z,13.65
2023-02-01T00:22:23.218Z,13.60
2023-02-01T00:24:54.348Z,14.10
2023-02-01T00:27:36.095Z,12.60
2023-02-01T00:30:12.664Z,13.35
2023-02-01T00:32:47.121Z,13.50
2023-02-01T00:35:17.293Z,13.38
2023-02-01T00:37:46.971Z,12.75
2023-02-01T00:40:14.961Z,12.98
2023-02-01T00:42:42.172Z,13.82
2023-02-01T00:45:12.380Z,13.27
2023-02-01T00:47:47.385Z,13.07
2023-02-01T00:50:17.724Z,13.75
2023-02-01T00:52:45.023Z,13.23
2023-02-01T00:55:16.539Z,13.15
2023-02-01T00:57:43.904Z,14.25
2023-02-01T01:00:14.698Z,14.35
2023-02-01T01:02:45.571Z,14.52
2023-02-01T01:05:14.695Z,14.13
2023-02-01T01:08:15.812Z,14.18
2023-02-01T01:10:46.256Z,14.68
2023-02-01T01:13:18.674Z,15.90
2023-02-01T01:15:46.619Z,15.93
2023-02-01T01:18:13.946Z,14.85
2023-02-01T01:20:48.000Z,14.82
2023-02-01T01:23:16.825Z,15.65
2023-02-01T01:25:48.110Z,15.32
2023-02-01T01:28:17.227Z,15.93
2023-02-01T01:30:50.194Z,15.52
2023-02-01T01:33:21.568Z,16.00
2023-02-01T01:35:51.461Z,14.95
2023-02-01T01:38:21.810Z,15.35
2023-02-01T01:40:51.812Z,14.75
2023-02-01T01:43:24.788Z,13.45
2023-02-01T01:45:55.649Z,13.75
2023-02-01T01:48:33.955Z,13.68
2023-02-01T01:51:24.908Z,14.25
2023-02-01T01:54:21.285Z,14.85
2023-02-01T01:57:02.488Z,14.05
2023-02-01T01:59:32.804Z,13.30
2023-02-01T02:02:12.591Z,13.80
2023-02-01T02:04:43.152Z,12.60
2023-02-01T02:07:50.923Z,12.88
2023-02-01T02:10:21.428Z,13.80
2023-02-01T02:12:59.253Z,13.77
2023-02-01T02:15:37.759Z,12.75
2023-02-01T02:18:28.647Z,12.65
2023-02-01T02:21:25.893Z,11.68
2023-02-01T02:24:07.994Z,12.68
2023-02-01T02:26:41.308Z,13.88
2023-02-01T02:29:51.366Z,12.90
2023-02-01T02:36:09.015Z,12.68
2023-02-01T02:38:59.009Z,12.63
2023-02-01T02:42:08.236Z,11.43
2023-02-01T02:45:09.850Z,12.25
2023-02-01T02:47:56.972Z,12.38
2023-02-01T02:50:56.259Z,12.55
2023-02-01T02:53:54.841Z,11.55
2023-02-01T02:56:45.474Z,13.02
2023-02-01T02:59:41.584Z,12.52
2023-02-01T03:02:34.528Z,13.60
2023-02-01T03:05:19.754Z,13.07
2023-02-01T03:07:57.464Z,12.85
2023-02-01T03:10:28.921Z,12.60
2023-02-01T03:13:01.983Z,12.48
2023-02-01T03:16:00.153Z,11.52
2023-02-01T03:18:37.321Z,12.32
2023-02-01T03:21:10.924Z,12.05
2023-02-01T03:26:21.960Z,11.38
2023-02-01T03:28:57.395Z,11.80
2023-02-01T03:31:33.101Z,13.25
2023-02-01T03:34:00.436Z,13.05
2023-02-01T03:36:35.066Z,12.88
2023-02-01T03:39:08.470Z,14.23
2023-02-01T03:42:04.838Z,14.63
2023-02-01T03:44:58.358Z,14.43
2023-02-01T03:47:36.882Z,13.77
2023-02-01T03:50:11.051Z,14.00
2023-02-01T03:52:55.367Z,12.30
2023-02-01T03:55:27.575Z,14.07
2023-02-01T03:58:04.598Z,12.93
2023-02-01T04:00:36.063Z,13.07
2023-02-01T04:03:10.475Z,13.27
2023-02-01T04:05:40.614Z,13.68
2023-02-01T04:08:09.585Z,13.20
2023-02-01T04:10:40.975Z,13.63
2023-02-01T04:13:12.016Z,13.10
2023-02-01T04:15:42.126Z,14.90
2023-02-01T04:18:09.613Z,12.23
2023-02-01T04:20:42.235Z,13.35
2023-02-01T04:23:09.524Z,13.35
2023-02-01T04:25:40.161Z,13.20
2023-02-01T04:28:17.768Z,12.88
2023-02-01T04:30:50.459Z,12.35
2023-02-01T04:33:19.700Z,12.00
2023-02-01T04:35:47.077Z,11.52
2023-02-01T04:38:21.733Z,12.63
2023-02-01T04:41:00.494Z,11.60
2023-02-01T04:43:28.792Z,12.35
2023-02-01T04:46:02.830Z,12.30
2023-02-01T04:48:30.185Z,11.93
2023-02-01T04:51:05.561Z,13.88
2023-02-01T04:53:33.458Z,12.80
2023-02-01T04:56:07.025Z,12.20
2023-02-01T04:58:34.809Z,11.88
2023-02-01T05:01:05.761Z,13.43
2023-02-01T05:03:38.825Z,14.68
2023-02-01T05:06:16.130Z,14.48
2023-02-01T05:08:51.836Z,13.85
2023-02-01T05:11:45.439Z,15.85
2023-02-01T05:14:17.074Z,15.90
2023-02-01T05:16:47.423Z,14.65
2023-02-01T05:19:14.911Z,15.90
2023-02-01T05:22:02.802Z,16.80
2023-02-01T05:24:30.141Z,16.67
2023-02-01T05:26:57.914Z,15.38
2023-02-01T05:29:27.708Z,15.02
2023-02-01T05:32:03.040Z,15.50
2023-02-01T05:34:41.789Z,13.80
2023-02-01T05:37:19.210Z,15.35
2023-02-01T05:42:40.890Z,14.93
2023-02-01T05:45:09.328Z,14.07
2023-02-01T05:47:40.605Z,16.13
2023-02-01T05:50:14.421Z,13.50
2023-02-01T05:52:53.890Z,13.63
2023-02-01T05:55:34.006Z,13.23
2023-02-01T05:58:01.756Z,12.98
2023-02-01T06:01:03.118Z,13.10
2023-02-01T06:03:30.865Z,13.73
2023-02-01T06:05:58.368Z,12.82
2023-02-01T06:08:27.050Z,13.65
2023-02-01T06:11:08.054Z,13.25
2023-02-01T06:16:08.863Z,12.63
2023-02-01T06:19:01.043Z,12.55
2023-02-01T06:21:31.242Z,12.82
2023-02-01T06:26:49.512Z,13.80
2023-02-01T06:29:19.059Z,14.65
2023-02-01T06:31:49.318Z,13.85
2023-02-01T06:34:16.677Z,14.10
2023-02-01T06:36:52.057Z,13.52
2023-02-01T06:39:32.699Z,13.80
2023-02-01T06:42:00.510Z,13.10
2023-02-01T06:44:54.960Z,14.23
2023-02-01T06:47:22.486Z,15.38
2023-02-01T06:49:50.830Z,15.38
2023-02-01T06:52:18.240Z,15.00
2023-02-01T06:54:58.539Z,14.13
2023-02-01T06:57:46.227Z,13.60
2023-02-01T07:00:18.409Z,13.70
2023-02-01T07:02:47.668Z,15.40
2023-02-01T07:05:18.092Z,15.57
2023-02-01T07:07:54.688Z,16.15
2023-02-01T07:10:33.202Z,14.73
2023-02-01T07:13:01.749Z,13.65
2023-02-01T07:15:52.666Z,13.93
2023-02-01T07:18:42.954Z,13.60
2023-02-01T07:21:25.478Z,12.75
2023-02-01T07:24:14.916Z,12.65
2023-02-01T07:26:49.280Z,13.55
2023-02-01T07:29:25.207Z,13.50
2023-02-01T07:37:30.084Z,12.95
2023-02-01T07:40:00.434Z,13.02
2023-02-01T07:42:53.520Z,13.82
2023-02-01T07:45:23.748Z,12.43
2023-02-01T07:47:56.017Z,13.02
2023-02-01T07:50:26.416Z,12.77
2023-02-01T07:52:55.794Z,13.40
2023-02-01T07:55:33.165Z,13.23
2023-02-01T07:58:02.428Z,12.10
2023-02-01T08:00:49.173Z,13.68
2023-02-01T08:03:21.270Z,13.30
2023-02-01T08:05:51.301Z,11.68
2023-02-01T08:11:28.008Z,13.23
2023-02-01T08:13:56.580Z,13.18
2023-02-01T08:16:29.688Z,13.90
2023-02-01T08:19:02.933Z,15.65
2023-02-01T08:21:39.109Z,13.68
2023-02-01T08:24:09.766Z,14.68
2023-02-01T08:26:40.124Z,15.52
2023-02-01T08:29:11.564Z,14.75
2023-02-01T08:31:44.835Z,13.90
2023-02-01T08:34:13.996Z,14.32
2023-02-01T08:39:29.552Z,13.32
2023-02-01T08:42:18.204Z,13.90
2023-02-01T08:44:45.708Z,14.18
2023-02-01T08:47:14.898Z,14.88
2023-02-01T08:50:16.743Z,13.23
2023-02-01T08:52:59.940Z,13.98
2023-02-01T08:55:31.340Z,12.27
2023-02-01T08:58:01.763Z,11.88
2023-02-01T09:00:28.980Z,11.65
2023-02-01T09:03:14.704Z,12.10
2023-02-01T09:05:54.063Z,11.38
2023-02-01T09:08:25.726Z,10.82
2023-02-01T09:11:11.506Z,10.20
2023-02-01T09:13:44.528Z,10.70
2023-02-01T09:16:29.177Z,11.00
2023-02-01T09:19:23.881Z,10.52
2023-02-01T09:21:50.696Z,11.18
2023-02-01T09:27:04.851Z,11.00
2023-02-01T09:29:37.524Z,12.10
2023-02-01T09:32:12.387Z,12.07
2023-02-01T09:34:50.607Z,10.80
2023-02-01T09:37:22.947Z,9.88
2023-02-01T09:40:03.571Z,9.07
2023-02-01T09:45:50.389Z,9.85
2023-02-01T09:48:33.836Z,10.07
2023-02-01T09:51:06.173Z,9.25
2023-02-01T09:53:42.291Z,10.18
2023-02-01T09:56:31.687Z,10.80
2023-02-01T09:59:41.346Z,10.43
2023-02-01T10:02:31.470Z,10.63
2023-02-01T10:05:02.333Z,10.68
2023-02-01T10:07:51.112Z,10.30
2023-02-01T10:10:51.000Z,10.55
2023-02-01T10:13:46.644Z,10.05
2023-02-01T10:17:13.332Z,8.75
2023-02-01T10:20:22.169Z,7.88
2023-02-01T10:26:22.686Z,6.72
2023-02-01T10:29:04.478Z,5.90
2023-02-01T10:31:43.061Z,6.10
2023-02-01T10:34:38.591Z,6.53
2023-02-01T10:37:27.669Z,6.43
2023-02-01T10:39:59.304Z,6.72
2023-02-01T10:42:32.935Z,6.00
2023-02-01T10:48:06.443Z,5.07
2023-02-01T10:50:41.802Z,5.07
2023-02-01T10:53:39.440Z,5.80
2023-02-01T10:56:11.794Z,5.38
2023-02-01T10:58:49.435Z,5.60
2023-02-01T11:01:23.821Z,5.38
2023-02-01T11:04:28.733Z,5.55
2023-02-01T11:07:27.959Z,5.40
2023-02-01T11:10:09.169Z,5.50
2023-02-01T11:12:39.926Z,5.55
2023-02-01T11:15:15.856Z,5.30
2023-02-01T11:17:52.283Z,5.25
2023-02-01T11:20:41.253Z,6.07
2023-02-01T11:23:31.832Z,5.75
2023-02-01T11:26:13.311Z,4.80
2023-02-01T11:28:59.744Z,5.22
2023-02-01T11:31:41.688Z,5.55
2023-02-01T11:37:58.481Z,5.27
2023-02-01T11:40:47.863Z,5.47
2023-02-01T11:43:38.462Z,6.00
2023-02-01T11:46:27.896Z,5.70
2023-02-01T11:49:32.090Z,6.25
2023-02-01T11:52:36.849Z,5.55
2023-02-01T11:55:28.206Z,5.60
2023-02-01T11:58:38.072Z,6.28
2023-02-01T12:01:14.298Z,5.57
2023-02-01T12:04:16.049Z,5.93
2023-02-01T12:06:58.754Z,6.70
2023-02-01T12:10:21.610Z,6.30
2023-02-01T12:15:59.645Z,6.22
2023-02-01T12:18:52.132Z,5.78
2023-02-01T12:21:51.642Z,12.77
2023-02-01T12:24:32.428Z,5.78
2023-02-01T12:27:28.964Z,5.93
2023-02-01T12:30:16.629Z,4.72
2023-02-01T12:33:19.512Z,4.97
2023-02-01T12:36:19.720Z,5.10
2023-02-01T12:39:12.277Z,4.85
2023-02-01T12:42:19.673Z,3.58
2023-02-01T12:45:19.816Z,3.40
2023-02-01T12:51:24.620Z,3.92
2023-02-01T12:54:03.999Z,4.07
2023-02-01T12:57:07.023Z,4.13
2023-02-01T13:00:06.686Z,3.90
2023-02-01T13:06:40.766Z,7.82
2023-02-01T13:09:51.131Z,8.27
2023-02-01T13:12:50.801Z,7.63
2023-02-01T13:15:34.726Z,6.60
2023-02-01T13:18:09.747Z,6.85
2023-02-01T13:20:48.276Z,6.28
2023-02-01T13:23:38.685Z,7.65
2023-02-01T13:26:09.926Z,7.90
2023-02-01T13:29:16.465Z,8.98
2023-02-01T13:32:02.051Z,8.10
2023-02-01T13:35:07.226Z,7.93
2023-02-01T13:41:40.255Z,4.90
2023-02-01T13:44:45.420Z,5.70
2023-02-01T13:47:54.678Z,6.00
2023-02-01T13:50:44.136Z,6.18
2023-02-01T13:56:49.775Z,5.30
2023-02-01T13:59:46.442Z,4.50
2023-02-01T14:02:48.505Z,5.10
2023-02-01T14:05:46.530Z,4.78
2023-02-01T14:08:42.276Z,5.28
2023-02-01T14:11:50.057Z,5.80
2023-02-01T14:14:17.236Z,5.22
2023-02-01T14:17:05.905Z,5.28
2023-02-01T14:19:39.161Z,8.77
2023-02-01T14:22:45.042Z,8.60
2023-02-01T14:25:24.421Z,9.55
2023-02-01T14:28:00.844Z,9.95
2023-02-01T14:30:36.331Z,9.88
2023-02-01T14:33:21.733Z,10.18
2023-02-01T14:36:27.292Z,9.88
2023-02-01T14:39:37.086Z,8.48
2023-02-01T14:43:23.402Z,9.50
2023-02-01T14:46:22.808Z,8.77
2023-02-01T14:49:02.279Z,10.05
2023-02-01T14:51:40.139Z,8.63
2023-02-01T14:54:15.221Z,9.38
2023-02-01T14:56:54.913Z,9.00
2023-02-01T14:59:26.731Z,9.75
2023-02-01T15:02:08.507Z,9.30
2023-02-01T15:04:54.637Z,9.02
2023-02-01T15:07:34.180Z,9.25
2023-02-01T15:17:17.729Z,8.65
2023-02-01T15:23:18.061Z,7.72
2023-02-01T15:32:11.027Z,8.43
2023-02-01T15:34:59.177Z,7.43
2023-02-01T15:41:36.381Z,6.68
2023-02-01T15:44:42.214Z,6.97
2023-02-01T15:47:42.419Z,7.22
2023-02-01T15:50:31.924Z,8.32
2023-02-01T15:53:59.090Z,8.43
2023-02-01T15:57:08.181Z,8.30
2023-02-01T16:00:22.597Z,7.40
2023-02-01T16:04:03.719Z,7.15
2023-02-01T16:07:44.034Z,7.00
2023-02-01T16:10:40.426Z,7.10
2023-02-01T16:13:39.587Z,7.20
2023-02-01T16:16:50.568Z,6.75
2023-02-01T16:20:01.690Z,6.72
2023-02-01T16:23:00.431Z,6.47
2023-02-01T16:25:46.333Z,6.03
2023-02-01T16:31:55.116Z,6.53
2023-02-01T16:34:59.381Z,6.65
2023-02-01T16:37:43.101Z,7.60
2023-02-01T16:40:54.092Z,6.57
2023-02-01T16:44:07.179Z,6.75
2023-02-01T16:47:13.264Z,7.70
2023-02-01T16:50:08.273Z,6.38
2023-02-01T16:53:15.799Z,5.22
2023-02-01T16:56:17.952Z,5.85
2023-02-01T16:58:58.617Z,5.95
2023-02-01T17:01:41.667Z,5.65
2023-02-01T17:04:21.980Z,6.60
2023-02-01T17:07:26.190Z,6.00
2023-02-01T17:13:54.765Z,6.40
2023-02-01T17:16:54.286Z,6.38
2023-02-01T17:22:41.686Z,5.47
2023-02-01T17:25:27.486Z,5.50
2023-02-01T17:28:24.971Z,7.53
2023-02-01T17:30:59.338Z,5.85
2023-02-01T17:33:36.639Z,6.30
2023-02-01T17:36:14.663Z,6.22
2023-02-01T17:41:40.166Z,6.18
2023-02-01T17:44:17.319Z,5.82
2023-02-01T17:47:01.557Z,6.75
2023-02-01T17:49:56.745Z,6.05
2023-02-01T17:52:32.102Z,6.00
2023-02-01T17:55:31.999Z,7.18
2023-02-01T17:58:10.267Z,6.22
2023-02-01T18:01:08.083Z,6.63
2023-02-01T18:03:48.501Z,6.50
2023-02-01T18:06:44.013Z,6.35
2023-02-01T18:09:31.105Z,7.00
2023-02-01T18:15:28.933Z,7.32
2023-02-01T18:18:39.196Z,7.18
2023-02-01T18:24:08.037Z,7.75
2023-02-01T18:26:44.233Z,7.82
2023-02-01T18:29:26.580Z,8.07
2023-02-01T18:32:15.859Z,8.05
2023-02-01T18:35:05.776Z,8.00
2023-02-01T18:41:30.570Z,8.95
2023-02-01T18:44:03.656Z,7.32
2023-02-01T18:46:33.374Z,9.40
2023-02-01T18:49:14.527Z,9.10
2023-02-01T18:54:58.776Z,7.88
2023-02-01T18:57:45.336Z,9.05
2023-02-01T19:00:27.406Z,8.35
2023-02-01T19:03:20.256Z,9.40
2023-02-01T19:06:18.742Z,9.17
2023-02-01T19:08:59.247Z,9.32
2023-02-01T19:11:51.381Z,9.82
2023-02-01T19:14:39.382Z,9.30
2023-02-01T19:17:10.203Z,8.85
2023-02-01T19:20:00.338Z,8.63
2023-02-01T19:22:43.090Z,9.77
2023-02-01T19:25:20.996Z,9.40
2023-02-01T19:28:00.667Z,9.07
2023-02-01T19:31:07.070Z,11.15
2023-02-01T19:33:57.293Z,10.90
2023-02-01T19:36:44.654Z,11.23
2023-02-01T19:39:30.173Z,11.20
2023-02-01T19:42:30.817Z,10.88
2023-02-01T19:45:16.716Z,11.10
2023-02-01T19:48:07.970Z,12.18
2023-02-01T19:50:49.105Z,11.02
2023-02-01T19:53:39.141Z,10.98
2023-02-01T19:56:28.365Z,10.90
2023-02-01T20:02:06.783Z,13.00
2023-02-01T20:04:36.948Z,13.27
2023-02-01T20:10:09.997Z,13.18
2023-02-01T20:12:49.992Z,14.00
2023-02-01T20:15:20.403Z,13.40
2023-02-01T20:17:58.272Z,13.07
2023-02-01T20:21:41.120Z,15.00
2023-02-01T20:27:13.001Z,13.32
2023-02-01T20:30:12.119Z,13.27
2023-02-01T20:35:57.236Z,13.15
2023-02-01T20:38:33.044Z,13.57
2023-02-01T20:41:22.502Z,13.93
2023-02-01T20:44:11.476Z,13.98
2023-02-01T20:46:56.133Z,13.73
2023-02-01T20:49:43.673Z,13.75
2023-02-01T20:52:39.310Z,13.57
2023-02-01T20:55:27.695Z,13.98
2023-02-01T20:58:11.146Z,14.32
2023-02-01T21:00:46.493Z,13.30
2023-02-01T21:03:32.341Z,13.95
2023-02-01T21:06:23.802Z,14.27
2023-02-01T21:08:59.655Z,13.65
2023-02-01T21:11:46.950Z,12.95
2023-02-01T21:14:37.827Z,14.85
2023-02-01T21:17:25.986Z,13.50
2023-02-01T21:23:02.194Z,13.80
2023-02-01T21:25:32.686Z,11.73
2023-02-01T21:28:20.133Z,11.77
2023-02-01T21:31:18.391Z,11.55
2023-02-01T21:34:03.979Z,9.73
2023-02-01T21:36:48.865Z,8.98
2023-02-01T21:39:39.439Z,8.25
2023-02-01T21:42:34.870Z,8.57
2023-02-01T21:45:15.911Z,8.32
2023-02-01T21:48:00.804Z,8.27
2023-02-01T21:50:30.908Z,7.95
2023-02-01T21:53:05.119Z,8.32
2023-02-01T21:55:49.695Z,8.30
2023-02-01T21:58:24.405Z,11.07
2023-02-01T22:01:01.119Z,10.30
2023-02-01T22:03:36.250Z,9.63
2023-02-01T22:06:07.145Z,8.35
2023-02-01T22:08:38.752Z,8.15
2023-02-01T22:11:09.008Z,7.90
2023-02-01T22:13:39.898Z,7.75
2023-02-01T22:16:07.418Z,8.00
2023-02-01T22:18:40.901Z,8.18
2023-02-01T22:21:08.437Z,8.10
2023-02-01T22:23:35.589Z,8.18
2023-02-01T22:26:06.752Z,8.15
2023-02-01T22:28:42.412Z,7.88
2023-02-01T22:31:21.921Z,8.27
2023-02-01T22:33:59.346Z,7.00
2023-02-01T22:36:36.485Z,7.55
2023-02-01T22:39:10.294Z,7.45
2023-02-01T22:41:48.333Z,7.75
2023-02-01T22:44:29.845Z,7.53
2023-02-01T22:47:02.833Z,7.07
2023-02-01T22:49:33.131Z,8.77
2023-02-01T22:52:06.372Z,8.15
2023-02-01T22:54:43.627Z,8.13
2023-02-01T22:57:20.787Z,7.68
2023-02-01T22:59:58.067Z,8.55
2023-02-01T23:02:37.409Z,9.43
2023-02-01T23:05:05.791Z,8.88
2023-02-01T23:07:38.583Z,8.85
2023-02-01T23:10:09.194Z,8.37
2023-02-01T23:12:36.498Z,8.90
2023-02-01T23:15:08.659Z,7.63
2023-02-01T23:17:40.042Z,8.48
2023-02-01T23:20:17.869Z,8.93
2023-02-01T23:22:49.848Z,8.32
2023-02-01T23:25:22.988Z,7.65
2023-02-01T23:27:54.067Z,7.68
2023-02-01T23:30:33.252Z,9.23
2023-02-01T23:33:09.148Z,8.70
2023-02-01T23:35:38.188Z,8.70
2023-02-01T23:38:10.873Z,8.82
2023-02-01T23:40:38.335Z,9.37
2023-02-01T23:46:08.617Z,9.13
2023-02-01T23:48:42.368Z,10.77
2023-02-01T23:51:15.481Z,9.45
2023-02-01T23:53:52.279Z,10.48
2023-02-01T23:56:39.571Z,10.73
2023-02-01T23:59:29.884Z,10.60
